createdAt,value
2019-04-14T00:00:01.927Z,21.80
2019-04-14T00:02:49.799Z,22.40
2019-04-14T00:05:58.358Z,24.27
2019-04-14T00:19:28.375Z,21.63
2019-04-14T00:22:38.088Z,21.87
2019-04-14T00:25:08.675Z,21.57
2019-04-14T00:27:38.865Z,22.30
2019-04-14T00:30:49.099Z,21.67
2019-04-14T00:36:28.286Z,19.40
2019-04-14T00:38:58.315Z,18.00
2019-04-14T00:41:51.932Z,20.30
2019-04-14T00:44:36.523Z,18.27
2019-04-14T00:47:24.650Z,17.90
2019-04-14T00:49:53.107Z,19.60
2019-04-14T00:52:21.616Z,18.80
2019-04-14T00:55:09.695Z,18.17
2019-04-14T00:57:38.259Z,16.97
2019-04-14T01:00:47.333Z,17.53
2019-04-14T01:03:17.756Z,16.67
2019-04-14T01:05:48.116Z,19.03
2019-04-14T01:11:10.037Z,16.80
2019-04-14T01:13:39.656Z,16.77
2019-04-14T01:16:13.931Z,19.30
2019-04-14T01:18:38.890Z,20.50
2019-04-14T01:24:01.045Z,20.13
2019-04-14T01:26:31.120Z,22.73
2019-04-14T01:28:59.585Z,20.80
2019-04-14T01:31:47.425Z,19.40
2019-04-14T01:34:15.867Z,20.30
2019-04-14T01:36:45.311Z,22.50
2019-04-14T01:39:34.930Z,20.37
2019-04-14T01:42:23.181Z,22.47
2019-04-14T01:44:52.534Z,22.93
2019-04-14T01:47:42.059Z,21.53
2019-04-14T01:53:05.394Z,21.40
2019-04-14T01:55:54.827Z,22.57
2019-04-14T01:58:43.147Z,21.90
2019-04-14T02:03:47.767Z,20.30
2019-04-14T02:06:37.644Z,21.40
2019-04-14T02:09:47.146Z,24.07
2019-04-14T02:12:34.816Z,21.30
2019-04-14T02:17:58.889Z,22.27
2019-04-14T02:20:49.054Z,20.90
2019-04-14T02:23:38.576Z,21.73
2019-04-14T02:26:26.966Z,20.97
2019-04-14T02:29:14.766Z,22.20
2019-04-14T02:32:13.881Z,21.30
2019-04-14T02:34:57.326Z,22.20
2019-04-14T02:37:28.321Z,21.70
2019-04-14T02:42:46.764Z,22.70
2019-04-14T02:45:42.904Z,24.07
2019-04-14T02:51:25.592Z,23.63
2019-04-14T02:56:43.414Z,23.93
2019-04-14T03:00:02.741Z,21.57
2019-04-14T03:02:42.571Z,23.27
2019-04-14T03:05:42.280Z,24.77
2019-04-14T03:16:39.739Z,23.77
2019-04-14T03:24:33.757Z,22.57
2019-04-14T03:27:48.243Z,24.57
2019-04-14T03:31:11.226Z,23.90
2019-04-14T03:44:01.573Z,23.83
2019-04-14T03:54:40.585Z,24.63
2019-04-14T03:57:30.079Z,25.57
2019-04-14T04:00:00.618Z,24.10
2019-04-14T04:02:29.694Z,24.40
2019-04-14T04:04:58.251Z,23.80
2019-04-14T04:07:47.422Z,23.90
2019-04-14T04:13:06.267Z,23.60
2019-04-14T04:15:36.502Z,23.00
2019-04-14T04:21:20.661Z,25.10
2019-04-14T04:24:09.056Z,22.90
2019-04-14T04:29:36.047Z,22.83
2019-04-14T04:35:13.138Z,24.87
2019-04-14T04:38:00.945Z,23.97
2019-04-14T04:40:48.773Z,26.00
2019-04-14T04:43:17.327Z,23.90
2019-04-14T04:45:45.810Z,24.80
2019-04-14T04:48:34.870Z,24.53
2019-04-14T04:51:22.993Z,24.90
2019-04-14T04:54:10.707Z,24.93
2019-04-14T04:56:40.446Z,25.10
2019-04-14T04:59:09.812Z,22.73
2019-04-14T05:01:58.923Z,25.07
2019-04-14T05:04:28.573Z,24.40
2019-04-14T05:07:38.329Z,24.80
2019-04-14T05:10:27.053Z,26.50
2019-04-14T05:18:50.895Z,25.60
2019-04-14T05:21:40.924Z,24.80
2019-04-14T05:24:11.328Z,26.83
2019-04-14T05:26:59.872Z,25.60
2019-04-14T05:32:21.617Z,25.57
2019-04-14T05:37:46.412Z,26.53
2019-04-14T05:40:34.765Z,25.30
2019-04-14T05:43:32.266Z,26.73
2019-04-14T05:46:12.108Z,26.50
2019-04-14T05:49:02.192Z,27.83
2019-04-14T05:51:32.621Z,26.77
2019-04-14T05:54:21.083Z,28.07
2019-04-14T05:59:44.061Z,29.97
2019-04-14T06:02:33.594Z,29.00
2019-04-14T06:05:03.718Z,27.50
2019-04-14T06:07:52.468Z,27.97
2019-04-14T06:10:40.274Z,27.03
2019-04-14T06:16:02.496Z,27.23
2019-04-14T06:18:31.091Z,28.90
2019-04-14T06:20:59.573Z,29.20
2019-04-14T06:23:47.464Z,29.97
2019-04-14T06:26:35.268Z,30.07
2019-04-14T06:32:17.360Z,30.57
2019-04-14T06:35:04.956Z,28.90
2019-04-14T06:46:36.397Z,28.67
2019-04-14T06:49:24.267Z,25.00
2019-04-14T06:51:52.750Z,27.30
2019-04-14T06:54:40.436Z,26.37
2019-04-14T06:57:28.169Z,25.97
2019-04-14T06:59:56.763Z,30.23
2019-04-14T07:02:25.252Z,27.30
2019-04-14T07:04:53.805Z,24.27
2019-04-14T07:07:22.347Z,23.13
2019-04-14T07:09:50.977Z,21.80
2019-04-14T07:12:19.441Z,23.97
2019-04-14T07:14:48.026Z,27.20
2019-04-14T07:17:16.508Z,23.93
2019-04-14T07:19:45.061Z,24.30
2019-04-14T07:22:13.658Z,23.57
2019-04-14T07:24:42.144Z,22.13
2019-04-14T07:27:10.618Z,21.87
2019-04-14T07:29:58.341Z,22.13
2019-04-14T07:32:46.017Z,22.50
2019-04-14T07:35:33.757Z,19.43
2019-04-14T07:38:21.414Z,18.77
2019-04-14T07:41:09.142Z,19.57
2019-04-14T07:44:16.106Z,20.23
2019-04-14T07:49:39.032Z,17.23
2019-04-14T07:52:26.701Z,18.20
2019-04-14T07:55:33.698Z,17.87
2019-04-14T08:01:10.514Z,18.20
2019-04-14T08:04:17.519Z,17.47
2019-04-14T08:09:21.620Z,17.03
2019-04-14T08:12:09.293Z,16.83
2019-04-14T08:14:37.822Z,19.27
2019-04-14T08:17:06.330Z,19.00
2019-04-14T08:19:34.893Z,19.10
2019-04-14T08:25:16.167Z,16.80
2019-04-14T08:28:03.971Z,17.67
2019-04-14T08:30:51.779Z,16.00
2019-04-14T08:33:39.626Z,17.50
2019-04-14T08:36:27.431Z,17.90
2019-04-14T08:38:55.958Z,16.43
2019-04-14T08:47:51.047Z,16.40
2019-04-14T08:53:47.156Z,17.27
2019-04-14T08:56:34.764Z,17.07
2019-04-14T08:59:41.658Z,17.33
2019-04-14T09:02:48.590Z,18.00
2019-04-14T09:08:34.965Z,16.90
2019-04-14T09:11:41.899Z,15.87
2019-04-14T09:14:29.736Z,16.20
2019-04-14T09:16:58.221Z,17.10
2019-04-14T09:22:19.991Z,17.40
2019-04-14T09:25:07.797Z,19.10
2019-04-14T09:27:55.478Z,16.43
2019-04-14T09:30:43.319Z,15.50
2019-04-14T09:33:11.794Z,15.23
2019-04-14T09:35:59.589Z,16.87
2019-04-14T09:38:28.073Z,15.67
2019-04-14T09:41:15.939Z,18.27
2019-04-14T09:44:03.743Z,16.83
2019-04-14T09:49:25.678Z,14.77
2019-04-14T09:52:13.534Z,16.10
2019-04-14T09:55:01.338Z,15.17
2019-04-14T09:57:49.188Z,15.43
2019-04-14T10:00:57.584Z,14.63
2019-04-14T10:06:40.879Z,16.67
2019-04-14T10:09:09.022Z,14.67
2019-04-14T10:11:56.910Z,15.40
2019-04-14T10:17:19.064Z,15.30
2019-04-14T10:20:06.902Z,17.20
2019-04-14T10:22:35.394Z,14.80
2019-04-14T10:31:10.516Z,15.30
2019-04-14T10:36:51.418Z,15.70
2019-04-14T10:39:20.180Z,14.83
2019-04-14T10:41:48.823Z,19.47
2019-04-14T10:44:17.316Z,15.93
2019-04-14T10:46:46.001Z,17.07
2019-04-14T10:49:14.632Z,16.23
2019-04-14T10:51:43.259Z,15.70
2019-04-14T10:54:11.934Z,16.53
2019-04-14T10:56:40.554Z,16.43
2019-04-14T10:59:09.106Z,16.53
2019-04-14T11:01:37.783Z,16.30
2019-04-14T11:04:08.001Z,16.17
2019-04-14T11:07:15.113Z,16.43
2019-04-14T11:10:02.792Z,16.67
2019-04-14T11:12:50.641Z,15.90
2019-04-14T11:15:38.452Z,15.20
2019-04-14T11:18:26.180Z,15.60
2019-04-14T11:21:13.853Z,15.70
2019-04-14T11:24:01.627Z,14.03
2019-04-14T11:26:49.360Z,14.10
2019-04-14T11:29:37.418Z,13.17
2019-04-14T11:32:23.864Z,14.50
2019-04-14T11:34:54.086Z,14.90
2019-04-14T11:37:40.519Z,13.83
2019-04-14T11:40:11.216Z,13.57
2019-04-14T11:42:51.598Z,12.10
2019-04-14T11:45:10.328Z,13.50
2019-04-14T11:47:38.857Z,12.17
2019-04-14T11:50:07.983Z,13.90
2019-04-14T11:52:36.542Z,12.70
2019-04-14T11:55:06.273Z,13.30
2019-04-14T11:57:34.764Z,13.70
2019-04-14T12:00:21.691Z,14.77
2019-04-14T12:02:54.540Z,13.20
2019-04-14T12:05:24.644Z,13.07
2019-04-14T12:07:54.784Z,14.03
2019-04-14T12:10:24.320Z,14.73
2019-04-14T12:12:52.810Z,14.40
2019-04-14T12:15:21.313Z,12.53
2019-04-14T12:17:49.780Z,13.00
2019-04-14T12:20:18.246Z,12.97
2019-04-14T12:22:46.889Z,13.00
2019-04-14T12:25:15.422Z,14.23
2019-04-14T12:27:44.327Z,12.67
2019-04-14T12:30:13.801Z,14.50
2019-04-14T12:32:42.917Z,14.13
2019-04-14T12:35:12.293Z,12.97
2019-04-14T12:37:40.881Z,14.10
2019-04-14T12:40:10.534Z,14.50
2019-04-14T12:42:46.693Z,14.00
2019-04-14T12:45:32.358Z,12.90
2019-04-14T12:48:02.506Z,13.63
2019-04-14T12:50:35.395Z,13.50
2019-04-14T12:53:03.998Z,13.80
2019-04-14T12:55:32.520Z,13.13
2019-04-14T12:58:05.303Z,13.30
2019-04-14T13:00:35.395Z,12.53
2019-04-14T13:03:04.349Z,12.57
2019-04-14T13:05:32.818Z,13.50
2019-04-14T13:08:01.281Z,12.93
2019-04-14T13:10:29.999Z,12.73
2019-04-14T13:12:58.523Z,14.23
2019-04-14T13:15:26.997Z,12.60
2019-04-14T13:17:55.486Z,12.07
2019-04-14T13:20:24.013Z,11.40
2019-04-14T13:22:52.467Z,13.47
2019-04-14T13:25:20.978Z,12.57
2019-04-14T13:27:50.492Z,11.83
2019-04-14T13:30:20.762Z,12.10
2019-04-14T13:32:49.252Z,12.97
2019-04-14T13:35:17.718Z,12.23
2019-04-14T13:37:46.183Z,12.63
2019-04-14T13:40:15.059Z,11.67
2019-04-14T13:42:43.525Z,12.30
2019-04-14T13:45:12.222Z,11.87
2019-04-14T13:47:40.770Z,12.40
2019-04-14T13:50:09.421Z,12.20
2019-04-14T13:52:46.699Z,12.50
2019-04-14T13:55:08.744Z,12.10
2019-04-14T13:57:37.207Z,11.13
2019-04-14T14:00:14.014Z,12.97
2019-04-14T14:02:43.420Z,10.23
2019-04-14T14:05:12.616Z,11.43
2019-04-14T14:07:42.133Z,11.07
2019-04-14T14:10:12.534Z,10.70
2019-04-14T14:12:48.226Z,11.50
2019-04-14T14:15:21.553Z,11.17
2019-04-14T14:18:07.761Z,10.93
2019-04-14T14:20:49.844Z,11.27
2019-04-14T14:23:35.330Z,11.10
2019-04-14T14:26:05.507Z,10.13
2019-04-14T14:28:33.967Z,11.40
2019-04-14T14:31:02.488Z,10.60
2019-04-14T14:33:30.943Z,11.57
2019-04-14T14:35:59.415Z,12.33
2019-04-14T14:38:27.918Z,12.73
2019-04-14T14:40:58.085Z,11.87
2019-04-14T14:43:26.543Z,10.47
2019-04-14T14:46:06.281Z,12.20
2019-04-14T14:48:42.545Z,11.40
2019-04-14T14:51:18.461Z,11.93
2019-04-14T14:53:46.926Z,12.57
2019-04-14T14:56:15.560Z,11.70
2019-04-14T14:58:45.468Z,11.70
2019-04-14T15:01:14.341Z,10.83
2019-04-14T15:03:42.871Z,11.50
2019-04-14T15:06:11.367Z,11.80
2019-04-14T15:08:39.838Z,10.53
2019-04-14T15:11:08.303Z,11.97
2019-04-14T15:13:37.036Z,11.03
2019-04-14T15:16:05.739Z,10.80
2019-04-14T15:18:34.275Z,10.27
2019-04-14T15:21:02.935Z,11.63
2019-04-14T15:23:31.466Z,11.37
2019-04-14T15:25:59.997Z,11.80
2019-04-14T15:28:28.616Z,11.07
2019-04-14T15:30:57.073Z,11.43
2019-04-14T15:33:25.533Z,11.17
2019-04-14T15:35:54.053Z,10.83
2019-04-14T15:38:22.580Z,11.70
2019-04-14T15:40:51.112Z,12.13
2019-04-14T15:43:19.613Z,11.30
2019-04-14T15:45:48.087Z,12.40
2019-04-14T15:48:16.551Z,10.60
2019-04-14T15:50:46.390Z,10.50
2019-04-14T15:53:14.921Z,10.87
2019-04-14T15:55:43.455Z,10.73
2019-04-14T15:58:13.595Z,10.83
2019-04-14T16:00:59.708Z,10.50
2019-04-14T16:03:30.268Z,11.47
2019-04-14T16:06:06.499Z,10.87
2019-04-14T16:08:52.766Z,12.00
2019-04-14T16:11:40.061Z,11.97
2019-04-14T16:14:10.306Z,11.23
2019-04-14T16:16:49.226Z,11.50
2019-04-14T16:19:19.460Z,11.03
2019-04-14T16:21:47.921Z,12.23
2019-04-14T16:24:16.390Z,10.43
2019-04-14T16:26:46.673Z,11.50
2019-04-14T16:29:19.200Z,9.43
2019-04-14T16:31:49.326Z,9.77
2019-04-14T16:34:22.336Z,8.87
2019-04-14T16:36:52.243Z,9.40
2019-04-14T16:39:20.841Z,9.50
2019-04-14T16:41:49.682Z,7.67
2019-04-14T16:44:18.222Z,8.37
2019-04-14T16:46:46.678Z,7.73
2019-04-14T16:49:15.241Z,8.53
2019-04-14T16:51:57.217Z,7.77
2019-04-14T16:54:30.169Z,7.73
2019-04-14T16:57:05.731Z,8.30
2019-04-14T16:59:34.193Z,7.80
2019-04-14T17:02:10.733Z,7.23
2019-04-14T17:04:33.144Z,7.70
2019-04-14T17:07:01.588Z,8.80
2019-04-14T17:09:30.077Z,7.13
2019-04-14T17:11:59.415Z,8.90
2019-04-14T17:14:29.595Z,7.67
2019-04-14T17:17:05.766Z,7.67
2019-04-14T17:19:41.777Z,7.63
2019-04-14T17:22:14.864Z,7.67
2019-04-14T17:25:03.334Z,7.77
2019-04-14T17:27:39.519Z,7.90
2019-04-14T17:30:22.466Z,8.73
2019-04-14T17:32:52.599Z,9.03
2019-04-14T17:35:22.725Z,7.87
2019-04-14T17:37:58.464Z,6.83
2019-04-14T17:40:28.626Z,7.80
2019-04-14T17:43:14.082Z,7.20
2019-04-14T17:46:00.284Z,7.87
2019-04-14T17:48:36.336Z,7.53
2019-04-14T17:51:06.561Z,7.83
2019-04-14T17:53:42.672Z,6.63
2019-04-14T17:56:21.535Z,8.27
2019-04-14T17:58:57.968Z,8.23
2019-04-14T18:01:37.061Z,8.37
2019-04-14T18:04:13.117Z,7.60
2019-04-14T18:06:43.277Z,9.23
2019-04-14T18:09:30.957Z,7.70
2019-04-14T18:12:37.780Z,9.47
2019-04-14T18:15:46.180Z,9.50
2019-04-14T18:18:33.763Z,10.13
2019-04-14T18:24:00.989Z,10.07
2019-04-14T18:26:29.461Z,10.27
2019-04-14T18:29:17.080Z,9.27
2019-04-14T18:32:04.652Z,8.90
2019-04-14T18:34:52.264Z,8.97
2019-04-14T18:49:13.430Z,9.77
2019-04-14T18:57:29.307Z,9.27
2019-04-14T19:00:16.974Z,10.60
2019-04-14T19:03:04.880Z,10.60
2019-04-14T19:05:33.404Z,9.47
2019-04-14T19:08:21.150Z,9.60
2019-04-14T19:11:08.746Z,9.67
2019-04-14T19:19:15.415Z,9.50
2019-04-14T19:21:43.872Z,10.00
2019-04-14T19:24:12.389Z,7.90
2019-04-14T19:29:33.976Z,9.30
2019-04-14T19:32:02.503Z,9.57
2019-04-14T19:37:04.660Z,9.40
2019-04-14T19:39:33.159Z,9.57
2019-04-14T19:44:54.622Z,10.03
2019-04-14T19:52:51.534Z,9.70
2019-04-14T19:55:20.865Z,9.10
2019-04-14T19:57:50.192Z,9.23
2019-04-14T20:03:46.126Z,9.70
2019-04-14T20:06:14.581Z,8.67
2019-04-14T20:08:43.056Z,12.07
2019-04-14T20:11:31.226Z,8.37
2019-04-14T20:14:18.872Z,10.27
2019-04-14T20:17:06.553Z,8.97
2019-04-14T20:19:54.192Z,8.73
2019-04-14T20:22:41.843Z,8.50
2019-04-14T20:25:33.957Z,9.40
2019-04-14T20:28:38.156Z,8.80
2019-04-14T20:31:25.801Z,11.17
2019-04-14T20:36:28.589Z,10.20
2019-04-14T20:39:16.273Z,10.70
2019-04-14T20:44:52.032Z,10.13
2019-04-14T20:47:20.498Z,8.70
2019-04-14T20:49:48.954Z,9.23
2019-04-14T20:52:36.868Z,9.80
2019-04-14T20:55:47.269Z,10.93
2019-04-14T20:58:15.496Z,9.77
2019-04-14T21:00:44.023Z,10.67
2019-04-14T21:03:31.719Z,10.33
2019-04-14T21:09:08.485Z,10.53
2019-04-14T21:14:45.273Z,10.20
2019-04-14T21:17:32.851Z,9.27
2019-04-14T21:22:55.863Z,8.20
2019-04-14T21:31:30.982Z,7.40
2019-04-14T21:34:18.547Z,7.90
2019-04-14T21:37:06.160Z,6.87
2019-04-14T21:39:53.799Z,8.33
2019-04-14T21:44:55.891Z,6.10
2019-04-14T21:47:24.357Z,5.80
2019-04-14T21:49:52.810Z,4.90
2019-04-14T21:52:40.772Z,4.13
2019-04-14T21:55:28.477Z,4.50
2019-04-14T21:58:16.159Z,3.83
2019-04-14T22:01:42.332Z,3.70
2019-04-14T22:07:24.932Z,4.00
2019-04-14T22:10:12.751Z,3.70
2019-04-14T22:15:49.492Z,3.93
2019-04-14T22:24:01.941Z,4.27
2019-04-14T22:29:22.758Z,3.97
2019-04-14T22:31:51.338Z,4.07
2019-04-14T22:34:19.785Z,4.70
2019-04-14T22:37:07.457Z,3.47
2019-04-14T22:39:35.913Z,4.37
2019-04-14T22:42:04.437Z,4.20
2019-04-14T22:47:06.703Z,3.63
2019-04-14T22:49:35.175Z,3.80
2019-04-14T22:54:56.846Z,4.10
2019-04-14T22:57:25.310Z,4.17
2019-04-14T23:05:43.282Z,4.93
2019-04-14T23:11:39.310Z,3.70
2019-04-14T23:14:26.879Z,4.10
2019-04-14T23:17:14.633Z,4.43
2019-04-14T23:20:02.196Z,3.93
2019-04-14T23:25:46.020Z,4.97
2019-04-14T23:33:37.580Z,4.60
2019-04-14T23:36:25.392Z,5.53
2019-04-14T23:39:13.033Z,5.73
2019-04-14T23:41:41.652Z,5.70
2019-04-14T23:44:10.101Z,5.50
2019-04-14T23:46:57.943Z,5.10
2019-04-14T23:49:26.420Z,4.57
2019-04-14T23:52:14.096Z,5.53
2019-04-14T23:54:42.582Z,4.73
2019-04-14T23:57:11.102Z,4.97
2019-04-14T23:59:39.607Z,4.60
